createdAt,value
2023-02-23T00:06:39.242Z,3.70
2023-02-23T00:11:43.152Z,4.93
2023-02-23T00:16:47.382Z,4.83
2023-02-23T00:21:54.026Z,6.43
2023-02-23T00:26:58.026Z,5.20
2023-02-23T00:32:01.701Z,5.30
2023-02-23T00:37:07.494Z,4.20
2023-02-23T00:42:11.393Z,4.27
2023-02-23T00:47:15.291Z,5.00
2023-02-23T00:52:20.423Z,3.87
2023-02-23T00:57:24.311Z,4.37
2023-02-23T01:02:31.405Z,4.10
2023-02-23T01:07:36.729Z,4.03
2023-02-23T01:12:40.347Z,4.37
2023-02-23T01:17:44.118Z,4.60
2023-02-23T01:22:51.481Z,4.43
2023-02-23T01:27:55.330Z,4.70
2023-02-23T01:32:59.085Z,4.30
2023-02-23T01:38:05.020Z,5.10
2023-02-23T01:43:14.239Z,5.00
2023-02-23T01:48:21.228Z,5.20
2023-02-23T01:53:30.364Z,5.83
2023-02-23T01:58:35.214Z,4.87
2023-02-23T02:03:43.344Z,5.77
2023-02-23T02:08:54.676Z,5.63
2023-02-23T02:14:02.568Z,5.07
2023-02-23T02:19:38.056Z,5.80
2023-02-23T02:25:17.676Z,4.90
2023-02-23T02:30:48.195Z,4.20
2023-02-23T02:36:17.874Z,4.33
2023-02-23T02:41:35.770Z,4.13
2023-02-23T02:46:41.945Z,4.93
2023-02-23T02:51:53.109Z,4.90
2023-02-23T02:57:00.808Z,4.43
2023-02-23T03:02:24.424Z,4.70
2023-02-23T03:07:52.523Z,4.43
2023-02-23T03:13:25.852Z,4.60
2023-02-23T03:19:02.659Z,4.40
2023-02-23T03:24:31.211Z,4.80
2023-02-23T03:30:04.254Z,4.20
2023-02-23T03:35:33.647Z,4.43
2023-02-23T03:40:58.244Z,3.80
2023-02-23T03:46:23.546Z,3.97
2023-02-23T03:51:46.819Z,4.50
2023-02-23T03:57:11.589Z,4.40
2023-02-23T04:02:37.486Z,4.57
2023-02-23T04:07:59.736Z,4.63
2023-02-23T04:13:16.009Z,4.77
2023-02-23T04:18:24.880Z,4.20
2023-02-23T04:23:29.647Z,4.47
2023-02-23T04:28:33.520Z,4.90
2023-02-23T04:33:38.951Z,4.87
2023-02-23T04:38:42.598Z,4.40
2023-02-23T04:43:46.200Z,4.23
2023-02-23T04:48:51.237Z,4.60
2023-02-23T04:53:55.274Z,4.50
2023-02-23T04:58:59.169Z,4.37
2023-02-23T05:04:04.225Z,3.70
2023-02-23T05:09:08.010Z,4.53
2023-02-23T05:14:12.508Z,4.13
2023-02-23T05:19:17.496Z,4.60
2023-02-23T05:24:21.987Z,5.30
2023-02-23T05:29:25.739Z,3.83
2023-02-23T05:34:30.717Z,3.43
2023-02-23T05:39:34.556Z,3.60
2023-02-23T05:44:38.537Z,3.43
2023-02-23T05:49:45.588Z,3.67
2023-02-23T05:54:49.258Z,2.80
2023-02-23T05:59:52.841Z,2.73
2023-02-23T06:04:57.930Z,2.93
2023-02-23T06:10:01.804Z,3.03
2023-02-23T06:15:06.836Z,3.20
2023-02-23T06:20:14.816Z,2.90
2023-02-23T06:25:18.899Z,3.20
2023-02-23T06:30:22.761Z,3.77
2023-02-23T06:35:28.366Z,3.50
2023-02-23T06:40:31.908Z,3.80
2023-02-23T06:45:35.806Z,3.73
2023-02-23T06:50:40.876Z,3.90
2023-02-23T06:55:44.458Z,4.97
2023-02-23T07:00:48.114Z,6.13
2023-02-23T07:05:53.855Z,5.83
2023-02-23T07:10:59.031Z,5.57
2023-02-23T07:16:02.931Z,6.07
2023-02-23T07:21:08.627Z,7.03
2023-02-23T07:26:16.120Z,6.97
2023-02-23T07:31:20.371Z,5.93
2023-02-23T07:36:26.494Z,5.30
2023-02-23T07:41:30.205Z,5.37
2023-02-23T07:46:37.008Z,6.00
2023-02-23T07:51:42.394Z,6.63
2023-02-23T07:56:46.371Z,5.00
2023-02-23T08:01:51.768Z,5.77
2023-02-23T08:06:56.681Z,6.67
2023-02-23T08:12:00.553Z,6.20
2023-02-23T08:17:04.464Z,7.13
2023-02-23T08:22:10.188Z,5.83
2023-02-23T08:27:14.142Z,6.27
2023-02-23T08:32:17.981Z,6.07
2023-02-23T08:37:23.241Z,6.57
2023-02-23T08:42:27.098Z,5.63
2023-02-23T08:47:30.651Z,6.17
2023-02-23T08:52:35.580Z,7.97
2023-02-23T08:57:39.376Z,5.57
2023-02-23T09:02:43.428Z,5.60
2023-02-23T09:07:49.355Z,5.37
2023-02-23T09:12:52.930Z,5.30
2023-02-23T09:18:01.030Z,5.10
2023-02-23T09:23:05.922Z,5.37
2023-02-23T09:28:11.968Z,5.57
2023-02-23T09:33:15.917Z,5.87
2023-02-23T09:38:20.952Z,6.53
2023-02-23T09:43:31.572Z,7.23
2023-02-23T09:48:36.301Z,5.20
2023-02-23T09:53:44.673Z,5.47
2023-02-23T09:58:50.341Z,5.77
2023-02-23T10:03:59.489Z,5.87
2023-02-23T10:09:16.374Z,4.83
2023-02-23T10:14:33.279Z,4.80
2023-02-23T10:19:45.239Z,4.53
2023-02-23T10:24:55.740Z,3.70
2023-02-23T10:30:02.783Z,3.70
2023-02-23T10:35:12.911Z,3.33
2023-02-23T10:40:23.274Z,3.93
2023-02-23T10:45:29.747Z,3.97
2023-02-23T10:50:34.465Z,3.87
2023-02-23T10:55:39.824Z,3.80
2023-02-23T11:00:52.557Z,4.40
2023-02-23T11:05:56.279Z,4.57
2023-02-23T11:11:22.730Z,5.63
2023-02-23T11:16:30.316Z,4.93
2023-02-23T11:21:35.764Z,5.70
2023-02-23T11:26:44.258Z,4.40
2023-02-23T11:31:51.653Z,3.60
2023-02-23T11:37:02.300Z,3.57
2023-02-23T11:42:18.351Z,3.23
2023-02-23T11:47:23.762Z,2.70
2023-02-23T11:52:28.929Z,4.07
2023-02-23T11:57:36.653Z,3.27
2023-02-23T12:02:50.230Z,3.53
2023-02-23T12:08:02.118Z,3.53
2023-02-23T12:13:22.481Z,4.17
2023-02-23T12:18:40.911Z,3.13
2023-02-23T12:23:49.949Z,3.50
2023-02-23T12:29:02.467Z,3.20
2023-02-23T12:34:13.615Z,3.67
2023-02-23T12:39:25.495Z,3.50
2023-02-23T12:44:41.363Z,5.33
2023-02-23T12:49:54.499Z,4.13
2023-02-23T12:54:58.230Z,5.43
2023-02-23T13:00:24.319Z,6.77
2023-02-23T13:05:31.436Z,6.20
2023-02-23T13:10:47.436Z,6.93
2023-02-23T13:16:00.907Z,7.63
2023-02-23T13:21:11.285Z,6.23
2023-02-23T13:26:28.557Z,7.17
2023-02-23T13:31:37.218Z,5.87
2023-02-23T13:36:43.982Z,6.73
2023-02-23T13:41:57.408Z,5.57
2023-02-23T13:47:12.804Z,6.67
2023-02-23T13:52:29.642Z,6.00
2023-02-23T13:57:34.028Z,6.17
2023-02-23T14:02:41.681Z,6.77
2023-02-23T14:07:48.847Z,6.57
2023-02-23T14:13:30.180Z,5.90
2023-02-23T14:18:36.281Z,5.83
2023-02-23T14:23:52.382Z,5.40
2023-02-23T14:29:12.443Z,5.20
2023-02-23T14:34:22.805Z,5.73
2023-02-23T14:39:29.606Z,5.40
2023-02-23T14:44:41.547Z,5.03
2023-02-23T14:49:49.687Z,4.83
2023-02-23T14:55:05.865Z,5.77
2023-02-23T15:00:21.072Z,4.83
2023-02-23T15:05:29.333Z,5.50
2023-02-23T15:10:36.691Z,6.20
2023-02-23T15:15:45.986Z,5.43
2023-02-23T15:20:52.007Z,4.73
2023-02-23T15:25:56.200Z,6.37
2023-02-23T15:31:02.250Z,6.07
2023-02-23T15:36:11.416Z,5.57
2023-02-23T15:41:22.985Z,4.87
2023-02-23T15:46:30.266Z,4.43
2023-02-23T15:51:39.124Z,5.30
2023-02-23T15:56:46.834Z,4.97
2023-02-23T16:01:54.970Z,4.43
2023-02-23T16:07:13.044Z,4.90
2023-02-23T16:12:21.812Z,4.50
2023-02-23T16:17:31.005Z,4.10
2023-02-23T16:22:37.328Z,3.63
2023-02-23T16:27:45.273Z,4.53
2023-02-23T16:32:49.071Z,4.60
2023-02-23T16:38:03.866Z,4.03
2023-02-23T16:43:07.594Z,4.20
2023-02-23T16:48:15.704Z,5.30
2023-02-23T16:53:20.631Z,4.30
2023-02-23T16:58:27.221Z,6.33
2023-02-23T17:03:32.641Z,4.67
2023-02-23T17:08:43.557Z,5.70
2023-02-23T17:13:56.160Z,4.87
2023-02-23T17:19:01.859Z,5.03
2023-02-23T17:24:08.192Z,4.20
2023-02-23T17:29:11.687Z,5.47
2023-02-23T17:34:15.450Z,5.97
2023-02-23T17:39:20.685Z,5.20
2023-02-23T17:44:24.254Z,5.40
2023-02-23T17:49:28.698Z,4.70
2023-02-23T17:54:34.589Z,5.80
2023-02-23T17:59:39.223Z,6.20
2023-02-23T18:04:43.307Z,6.23
2023-02-23T18:09:50.199Z,5.80
2023-02-23T18:14:54.299Z,6.40
2023-02-23T18:19:57.861Z,5.23
2023-02-23T18:25:03.149Z,5.73
2023-02-23T18:30:08.318Z,7.33
2023-02-23T18:35:12.051Z,6.67
2023-02-23T18:40:25.868Z,4.90
2023-02-23T18:45:29.445Z,6.27
2023-02-23T18:50:33.582Z,5.83
2023-02-23T18:55:40.887Z,5.50
2023-02-23T19:00:44.611Z,5.27
2023-02-23T19:05:52.842Z,6.63
2023-02-23T19:10:58.586Z,7.43
2023-02-23T19:16:04.368Z,6.90
2023-02-23T19:21:08.333Z,5.40
2023-02-23T19:26:13.304Z,6.23
2023-02-23T19:31:20.714Z,5.87
2023-02-23T19:36:29.530Z,5.57
2023-02-23T19:41:35.686Z,5.73
2023-02-23T19:46:39.824Z,6.00
2023-02-23T19:51:44.255Z,6.57
2023-02-23T19:56:50.589Z,5.10
2023-02-23T20:01:54.187Z,5.00
2023-02-23T20:06:58.020Z,5.80
2023-02-23T20:12:03.716Z,5.77
2023-02-23T20:17:09.080Z,5.03
2023-02-23T20:22:12.731Z,5.50
2023-02-23T20:27:19.191Z,4.83
2023-02-23T20:32:23.601Z,4.43
2023-02-23T20:37:27.222Z,4.13
2023-02-23T20:42:32.252Z,4.40
2023-02-23T20:47:35.984Z,3.67
2023-02-23T20:52:40.219Z,4.20
2023-02-23T20:57:46.041Z,4.40
2023-02-23T21:02:55.240Z,3.37
2023-02-23T21:08:01.510Z,3.20
2023-02-23T21:13:07.825Z,5.17
2023-02-23T21:18:12.148Z,3.33
2023-02-23T21:23:17.512Z,4.67
2023-02-23T21:28:22.883Z,5.87
2023-02-23T21:33:26.611Z,3.73
2023-02-23T21:38:30.250Z,3.83
2023-02-23T21:43:37.584Z,4.30
2023-02-23T21:48:41.439Z,3.57
2023-02-23T21:53:46.246Z,4.13
2023-02-23T21:58:52.981Z,4.50
2023-02-23T22:03:57.150Z,5.87
2023-02-23T22:09:00.994Z,5.00
2023-02-23T22:14:09.110Z,5.03
2023-02-23T22:19:13.848Z,4.83
2023-02-23T22:24:18.330Z,3.87
2023-02-23T22:29:24.539Z,3.77
2023-02-23T22:34:28.467Z,3.43
2023-02-23T22:39:33.874Z,3.70
2023-02-23T22:44:40.118Z,4.40
2023-02-23T22:49:44.033Z,3.20
2023-02-23T22:54:47.992Z,4.40
2023-02-23T23:00:00.214Z,4.77
2023-02-23T23:05:04.157Z,3.73
2023-02-23T23:10:12.147Z,4.00
2023-02-23T23:15:19.262Z,3.70
2023-02-23T23:20:26.017Z,3.20
2023-02-23T23:25:29.678Z,3.13
2023-02-23T23:30:35.393Z,3.50
2023-02-23T23:35:38.993Z,2.53
2023-02-23T23:40:46.990Z,3.13
2023-02-23T23:45:52.461Z,3.07
2023-02-23T23:50:56.676Z,3.97
2023-02-23T23:56:06.479Z,3.43
